Time;durP1;ratioP1;P1;durP2;ratioP2;P2;SDS_P1;SDS_P2;PMS_P1;PMS_P2;Temp;Humidity;BMP_temperature;BMP_pressure;BME280_temperature;BME280_humidity;BME280_pressure;Samples;Min_cycle;Max_cycle;Signal;HPM_P1;HPM_P2
2022/12/14 00:01:40;;;;;;;;;;;-4.50;99.90;;;;;;5024379;28;19912;-72
2022/12/14 00:04:06;;;;;;;;;;;-4.50;99.90;;;;;;5021377;28;19937;-72
2022/12/14 00:06:32;;;;;;;;;;;-4.50;99.90;;;;;;5029849;28;20327;-72
2022/12/14 00:08:58;;;;;;;;;;;-4.50;99.90;;;;;;5022559;28;19913;-72
2022/12/14 00:11:24;;;;;;;;;;;-4.60;99.90;;;;;;5027122;28;19920;-72
2022/12/14 00:13:50;;;;;;;;;;;-4.60;99.90;;;;;;5028528;28;19916;-71
2022/12/14 00:16:16;;;;;;;;;;;-4.60;99.90;;;;;;5026636;28;19920;-72
2022/12/14 00:18:42;;;;;;;;;;;-4.60;99.90;;;;;;5028427;28;20527;-70
2022/12/14 00:21:08;;;;;;;;;;;-4.60;99.90;;;;;;5029761;28;20002;-71
2022/12/14 00:23:34;;;;;;;;;;;-4.70;99.90;;;;;;5004872;28;19913;-71
2022/12/14 00:26:13;;;;;;;;;;;-4.70;99.90;;;;;;5028648;28;19924;-71
2022/12/14 00:28:38;;;;;;;;;;;-4.70;99.90;;;;;;5028188;28;20030;-70
2022/12/14 00:31:04;;;;;;;;;;;-4.70;99.90;;;;;;5025711;28;20021;-70
2022/12/14 00:33:30;;;;;;;;;;;-4.70;99.90;;;;;;5028207;28;19920;-70
2022/12/14 00:35:55;;;;;;;;;;;-4.70;99.90;;;;;;5027265;28;19979;-70
2022/12/14 00:38:21;;;;;;;;;;;-4.70;99.90;;;;;;5027519;28;20322;-70
2022/12/14 00:40:46;;;;;;;;;;;-4.70;99.90;;;;;;5027554;28;19925;-70
2022/12/14 00:43:12;;;;;;;;;;;-4.70;99.90;;;;;;5028167;28;19913;-70
2022/12/14 00:45:37;;;;;;;;;;;-4.70;99.90;;;;;;5028355;28;19913;-70
2022/12/14 00:48:03;;;;;;;;;;;-4.70;99.90;;;;;;5029798;28;20327;-70
2022/12/14 00:50:29;;;;;;;;;;;-4.70;99.90;;;;;;5027355;28;20246;-70
2022/12/14 00:52:54;;;;;;;;;;;-4.70;99.90;;;;;;5028319;28;19971;-70
2022/12/14 00:55:20;;;;;;;;;;;-4.70;99.90;;;;;;5028975;28;20380;-71
2022/12/14 00:57:46;;;;;;;;;;;-4.70;99.90;;;;;;5028539;28;20379;-70
2022/12/14 01:00:11;;;;;;;;;;;-4.70;99.90;;;;;;5033452;28;19919;-70
2022/12/14 01:02:37;;;;;;;;;;;-4.70;99.90;;;;;;5036151;28;19943;-70
2022/12/14 01:05:03;;;;;;;;;;;-4.70;99.90;;;;;;5016770;28;19917;-70
2022/12/14 01:07:28;;;;;;;;;;;-4.70;99.90;;;;;;5035363;28;20327;-70
2022/12/14 01:09:54;;;;;;;;;;;-4.70;99.90;;;;;;5017867;28;19928;-70
2022/12/14 01:12:19;;;;;;;;;;;-4.70;99.90;;;;;;5034742;28;20369;-71
2022/12/14 01:14:45;;;;;;;;;;;-4.70;99.90;;;;;;5028467;28;19921;-70
2022/12/14 01:17:11;;;;;;;;;;;-4.70;99.90;;;;;;5034615;28;19913;-70
2022/12/14 01:19:36;;;;;;;;;;;-4.70;99.90;;;;;;5048038;28;20309;-70
2022/12/14 01:22:02;;;;;;;;;;;-4.80;99.90;;;;;;5034318;28;19924;-70
2022/12/14 01:24:28;;;;;;;;;;;-4.80;99.90;;;;;;5031833;28;19913;-70
2022/12/14 01:26:53;;;;;;;;;;;-4.90;99.90;;;;;;5034825;28;19958;-70
2022/12/14 01:29:19;;;;;;;;;;;-4.90;99.90;;;;;;5013424;28;19917;-70
2022/12/14 01:31:44;;;;;;;;;;;-4.90;99.90;;;;;;5033368;28;19924;-70
2022/12/14 01:34:10;;;;;;;;;;;-4.90;99.90;;;;;;5035067;28;19950;-70
2022/12/14 01:36:36;;;;;;;;;;;-4.90;99.90;;;;;;5036688;28;20378;-70
2022/12/14 01:39:06;;;;;;;;;;;-4.90;99.90;;;;;;5035059;28;19920;-70
2022/12/14 01:41:32;;;;;;;;;;;-5.00;99.90;;;;;;5017651;28;19913;-70
2022/12/14 01:43:58;;;;;;;;;;;-5.00;99.90;;;;;;5027958;28;20224;-70
2022/12/14 01:46:32;;;;;;;;;;;-4.90;99.90;;;;;;5035377;28;19963;-70
2022/12/14 01:49:01;;;;;;;;;;;-5.00;99.90;;;;;;5017256;28;20231;-70
2022/12/14 01:51:27;;;;;;;;;;;-5.00;99.90;;;;;;5032820;28;19913;-71
2022/12/14 01:53:52;;;;;;;;;;;-5.00;99.90;;;;;;5017030;28;19928;-70
2022/12/14 01:56:18;;;;;;;;;;;-5.00;99.90;;;;;;5028460;28;19986;-70
2022/12/14 01:58:44;;;;;;;;;;;-5.10;99.90;;;;;;5035568;28;20259;-72
2022/12/14 02:01:10;;;;;;;;;;;-5.10;99.90;;;;;;5029690;28;19913;-71
2022/12/14 02:03:36;;;;;;;;;;;-5.10;99.90;;;;;;5035541;28;20337;-71
2022/12/14 02:06:02;;;;;;;;;;;-5.10;99.90;;;;;;5017534;28;19913;-70
2022/12/14 02:08:27;;;;;;;;;;;-5.20;99.90;;;;;;5033693;28;20357;-70
2022/12/14 02:10:53;;;;;;;;;;;-5.20;99.90;;;;;;5030185;28;19975;-71
2022/12/14 02:13:23;;;;;;;;;;;-5.10;99.90;;;;;;5007629;28;19917;-70
2022/12/14 02:15:49;;;;;;;;;;;-5.10;99.90;;;;;;5028862;28;19913;-70
2022/12/14 02:18:21;;;;;;;;;;;-5.10;99.90;;;;;;5032051;28;19956;-70
2022/12/14 02:21:05;;;;;;;;;;;-5.20;99.90;;;;;;5030769;28;20934;-70
2022/12/14 02:23:50;;;;;;;;;;;-5.20;99.90;;;;;;5031837;28;20600;-71
2022/12/14 02:26:21;;;;;;;;;;;-5.20;99.90;;;;;;5026752;28;20428;-70
2022/12/14 02:29:06;;;;;;;;;;;-5.20;99.90;;;;;;5030769;28;19913;-70
2022/12/14 02:31:31;;;;;;;;;;;-5.20;99.90;;;;;;5025749;28;19935;-70
2022/12/14 02:34:09;;;;;;;;;;;-5.20;99.90;;;;;;5028992;28;19917;-70
2022/12/14 02:36:37;;;;;;;;;;;-5.20;99.90;;;;;;5028400;28;19913;-70
2022/12/14 02:39:21;;;;;;;;;;;-5.20;99.90;;;;;;5029505;28;20354;-70
2022/12/14 02:41:50;;;;;;;;;;;-5.20;99.90;;;;;;5026934;28;20220;-70
2022/12/14 02:44:17;;;;;;;;;;;-5.20;99.90;;;;;;5029849;28;19921;-70
2022/12/14 02:46:49;;;;;;;;;;;-5.30;99.90;;;;;;5021630;28;20586;-70
2022/12/14 02:49:23;;;;;;;;;;;-5.30;99.90;;;;;;5013786;28;19948;-70
2022/12/14 02:51:56;;;;;;;;;;;-5.20;99.90;;;;;;5012301;28;19917;-70
2022/12/14 02:54:26;;;;;;;;;;;-5.20;99.90;;;;;;5029517;28;20317;-70
2022/12/14 02:57:01;;;;;;;;;;;-5.20;99.90;;;;;;5029992;28;20004;-70
2022/12/14 02:59:27;;;;;;;;;;;-5.30;99.90;;;;;;5029912;28;19913;-70
2022/12/14 03:01:52;;;;;;;;;;;-5.30;99.90;;;;;;5025214;28;19912;-69
2022/12/14 03:04:18;;;;;;;;;;;-5.20;99.90;;;;;;5025243;28;19917;-70
2022/12/14 03:06:58;;;;;;;;;;;-5.20;99.90;;;;;;5031240;28;20667;-70
2022/12/14 03:09:24;;;;;;;;;;;-5.20;99.90;;;;;;5029808;28;19916;-70
2022/12/14 03:11:50;;;;;;;;;;;-5.20;99.90;;;;;;5024521;28;19923;-70
2022/12/14 03:14:19;;;;;;;;;;;-5.20;99.90;;;;;;5030405;28;19917;-71
2022/12/14 03:16:46;;;;;;;;;;;-5.30;99.90;;;;;;5008862;28;19924;-71
2022/12/14 03:19:25;;;;;;;;;;;-5.20;99.90;;;;;;5009338;28;19982;-71
2022/12/14 03:21:52;;;;;;;;;;;-5.30;99.90;;;;;;5024354;28;19974;-71
2022/12/14 03:24:19;;;;;;;;;;;-5.20;99.90;;;;;;5022113;28;19917;-71
2022/12/14 03:27:14;;;;;;;;;;;-5.20;99.90;;;;;;5023713;28;19913;-71
2022/12/14 03:29:58;;;;;;;;;;;-5.20;99.90;;;;;;5029439;28;19995;-70
2022/12/14 03:32:25;;;;;;;;;;;-5.20;99.90;;;;;;5009590;28;19913;-71
2022/12/14 03:34:52;;;;;;;;;;;-5.30;99.90;;;;;;5020326;28;19913;-71
2022/12/14 03:37:19;;;;;;;;;;;-5.30;99.90;;;;;;5026369;28;20031;-71
2022/12/14 03:39:45;;;;;;;;;;;-5.30;99.90;;;;;;5022716;28;20497;-71
2022/12/14 03:42:22;;;;;;;;;;;-5.30;99.90;;;;;;5024025;28;20004;-70
2022/12/14 03:44:48;;;;;;;;;;;-5.30;99.90;;;;;;5030293;28;19913;-71
2022/12/14 03:47:29;;;;;;;;;;;-5.30;99.90;;;;;;5029410;28;19913;-71
2022/12/14 03:49:57;;;;;;;;;;;-5.30;99.90;;;;;;5029265;28;19948;-71
2022/12/14 03:52:38;;;;;;;;;;;-5.30;99.90;;;;;;5026824;28;20383;-71
2022/12/14 03:55:22;;;;;;;;;;;-5.30;99.90;;;;;;5030368;28;19932;-71
2022/12/14 03:57:48;;;;;;;;;;;-5.40;99.90;;;;;;5025573;28;19913;-71
2022/12/14 04:00:21;;;;;;;;;;;-5.40;99.90;;;;;;5030010;28;19924;-71
2022/12/14 04:02:49;;;;;;;;;;;-5.40;99.90;;;;;;5030128;28;19966;-71
2022/12/14 04:05:23;;;;;;;;;;;-5.40;99.90;;;;;;5010626;28;19917;-71
2022/12/14 04:07:51;;;;;;;;;;;-5.50;99.90;;;;;;5027273;28;19913;-70
2022/12/14 04:18:58;;;;;;;;;;;-5.40;99.90;;;;;;5025102;28;20243;-71
2022/12/14 04:21:33;;;;;;;;;;;-5.50;99.90;;;;;;5028793;28;19913;-71
2022/12/14 04:26:48;;;;;;;;;;;-5.50;99.90;;;;;;5028639;28;19920;-72
2022/12/14 04:32:11;;;;;;;;;;;-5.50;99.90;;;;;;5028640;28;19913;-72
2022/12/14 04:34:37;;;;;;;;;;;-5.60;99.90;;;;;;5028049;28;19917;-71
2022/12/14 04:37:04;;;;;;;;;;;-5.60;99.90;;;;;;5025364;28;19983;-71
2022/12/14 04:39:34;;;;;;;;;;;-5.60;99.90;;;;;;5011781;28;19921;-72
2022/12/14 04:41:59;;;;;;;;;;;-5.60;99.90;;;;;;5028419;28;19913;-72
2022/12/14 04:44:35;;;;;;;;;;;-5.70;99.90;;;;;;5027181;28;19923;-71
2022/12/14 04:47:00;;;;;;;;;;;-5.70;99.90;;;;;;5023907;28;19971;-72
2022/12/14 04:49:38;;;;;;;;;;;-5.70;99.90;;;;;;5027870;28;19917;-71
2022/12/14 04:52:11;;;;;;;;;;;-5.80;99.90;;;;;;5026173;28;19938;-72
2022/12/14 04:54:39;;;;;;;;;;;-5.80;99.90;;;;;;5009248;28;19924;-71
2022/12/14 04:57:23;;;;;;;;;;;-5.80;99.90;;;;;;5022471;28;19940;-71
2022/12/14 04:59:49;;;;;;;;;;;-5.90;99.90;;;;;;5029284;28;20319;-71
2022/12/14 05:02:15;;;;;;;;;;;-5.90;99.90;;;;;;5024062;28;20384;-71
2022/12/14 05:04:58;;;;;;;;;;;-5.90;99.90;;;;;;5028108;28;20642;-71
2022/12/14 05:07:27;;;;;;;;;;;-5.90;99.90;;;;;;5020727;28;19945;-72
2022/12/14 05:10:06;;;;;;;;;;;-5.90;99.90;;;;;;5015868;28;20367;-72
2022/12/14 05:12:38;;;;;;;;;;;-6.00;99.90;;;;;;5021484;28;19913;-71
2022/12/14 05:15:03;;;;;;;;;;;-5.90;99.90;;;;;;5028529;28;19921;-71
2022/12/14 05:17:29;;;;;;;;;;;-5.90;99.90;;;;;;5028569;28;19923;-71
2022/12/14 05:19:54;;;;;;;;;;;-5.90;99.90;;;;;;5026542;28;19913;-71
2022/12/14 05:22:20;;;;;;;;;;;-5.90;99.90;;;;;;5010909;28;19916;-71
2022/12/14 05:24:46;;;;;;;;;;;-5.80;99.90;;;;;;5024604;28;19916;-71
2022/12/14 05:27:12;;;;;;;;;;;-5.80;99.90;;;;;;5026099;28;20274;-71
2022/12/14 05:29:37;;;;;;;;;;;-5.80;99.90;;;;;;5021156;28;19913;-71
2022/12/14 05:32:03;;;;;;;;;;;-5.90;99.90;;;;;;5026549;28;19971;-71
2022/12/14 05:34:29;;;;;;;;;;;-5.90;99.90;;;;;;5025947;28;19917;-71
2022/12/14 05:36:55;;;;;;;;;;;-6.00;99.90;;;;;;5027489;28;19913;-71
2022/12/14 05:39:20;;;;;;;;;;;-6.10;99.90;;;;;;5024125;28;19931;-71
2022/12/14 05:41:46;;;;;;;;;;;-6.10;99.90;;;;;;5024431;28;19916;-71
2022/12/14 05:44:12;;;;;;;;;;;-6.00;99.90;;;;;;5028653;28;20006;-71
2022/12/14 05:46:37;;;;;;;;;;;-6.00;99.90;;;;;;5025943;28;19965;-71
2022/12/14 05:49:06;;;;;;;;;;;-6.00;99.90;;;;;;5032487;28;19917;-71
2022/12/14 05:51:32;;;;;;;;;;;-6.00;99.90;;;;;;5031338;28;20330;-71
2022/12/14 05:53:57;;;;;;;;;;;-6.00;99.90;;;;;;5027162;28;19917;-71
2022/12/14 05:56:23;;;;;;;;;;;-6.00;99.90;;;;;;5032548;28;20014;-71
2022/12/14 05:58:49;;;;;;;;;;;-6.00;99.90;;;;;;5031355;28;19913;-69
2022/12/14 06:01:14;;;;;;;;;;;-6.00;99.90;;;;;;5032737;28;19908;-70
2022/12/14 06:03:40;;;;;;;;;;;-6.10;99.90;;;;;;5014830;28;20254;-70
2022/12/14 06:06:07;;;;;;;;;;;-6.10;99.90;;;;;;5022973;28;20398;-71
2022/12/14 06:08:33;;;;;;;;;;;-6.10;99.90;;;;;;5029869;28;19913;-71
2022/12/14 06:11:07;;;;;;;;;;;-6.10;99.90;;;;;;5031544;28;20034;-71
2022/12/14 06:13:34;;;;;;;;;;;-6.10;99.90;;;;;;5027719;28;20392;-71
2022/12/14 06:16:13;;;;;;;;;;;-6.10;99.90;;;;;;5031841;28;19913;-72
2022/12/14 06:18:42;;;;;;;;;;;-6.10;99.90;;;;;;4999534;28;20314;-72
2022/12/14 06:21:08;;;;;;;;;;;-6.10;99.90;;;;;;5030169;28;19913;-72
2022/12/14 06:23:33;;;;;;;;;;;-6.10;99.90;;;;;;5026806;28;19946;-71
2022/12/14 06:25:59;;;;;;;;;;;-6.20;99.90;;;;;;5029507;28;19920;-71
2022/12/14 06:28:25;;;;;;;;;;;-6.20;99.90;;;;;;5031287;28;19916;-72
2022/12/14 06:30:50;;;;;;;;;;;-6.20;99.90;;;;;;5031742;28;19913;-71
2022/12/14 06:33:16;;;;;;;;;;;-6.20;99.90;;;;;;5030161;28;19959;-71
2022/12/14 06:35:43;;;;;;;;;;;-6.20;99.90;;;;;;5031055;28;20003;-71
2022/12/14 06:38:09;;;;;;;;;;;-6.20;99.90;;;;;;5024359;28;20322;-70
2022/12/14 06:40:34;;;;;;;;;;;-6.20;99.90;;;;;;5030705;28;19913;-66
2022/12/14 06:43:00;;;;;;;;;;;-6.20;99.90;;;;;;5027508;28;20314;-67
2022/12/14 06:45:27;;;;;;;;;;;-6.20;99.90;;;;;;5031093;28;19913;-66
2022/12/14 06:47:52;;;;;;;;;;;-6.20;99.90;;;;;;5018819;28;19963;-66
2022/12/14 06:50:18;;;;;;;;;;;-6.20;99.90;;;;;;5031358;28;19917;-68
2022/12/14 06:52:43;;;;;;;;;;;-6.20;99.90;;;;;;5030374;28;19913;-65
2022/12/14 06:55:09;;;;;;;;;;;-6.20;99.90;;;;;;5026008;28;20251;-64
2022/12/14 06:57:35;;;;;;;;;;;-6.20;99.90;;;;;;5029538;28;19916;-67
2022/12/14 07:00:00;;;;;;;;;;;-6.20;99.90;;;;;;5022755;28;19913;-65
2022/12/14 07:02:26;;;;;;;;;;;-6.30;99.90;;;;;;5008445;28;19920;-66
2022/12/14 07:04:52;;;;;;;;;;;-6.30;99.90;;;;;;5030045;28;19939;-66
2022/12/14 07:07:17;;;;;;;;;;;-6.30;99.90;;;;;;5029292;28;19920;-66
2022/12/14 07:09:43;;;;;;;;;;;-6.30;99.90;;;;;;5027500;28;19987;-67
2022/12/14 07:12:09;;;;;;;;;;;-6.40;99.90;;;;;;5013234;28;19912;-66
2022/12/14 07:14:34;;;;;;;;;;;-6.40;99.90;;;;;;5029230;28;19924;-67
2022/12/14 07:17:00;;;;;;;;;;;-6.30;99.90;;;;;;5027154;28;20384;-66
2022/12/14 07:19:27;;;;;;;;;;;-6.30;99.90;;;;;;5027132;28;20358;-65
2022/12/14 07:21:52;;;;;;;;;;;-6.30;99.90;;;;;;5028826;28;19917;-68
2022/12/14 07:24:18;;;;;;;;;;;-6.30;99.90;;;;;;5029305;28;19971;-67
2022/12/14 07:26:43;;;;;;;;;;;-6.30;99.90;;;;;;5013352;28;19986;-68
2022/12/14 07:29:10;;;;;;;;;;;-6.30;99.90;;;;;;5024323;28;20347;-68
2022/12/14 07:31:36;;;;;;;;;;;-6.30;99.90;;;;;;5027449;28;19916;-68
2022/12/14 07:34:02;;;;;;;;;;;-6.30;99.90;;;;;;5030993;28;19978;-67
2022/12/14 07:36:28;;;;;;;;;;;-6.30;99.90;;;;;;5022044;28;19913;-67
2022/12/14 07:38:54;;;;;;;;;;;-6.30;99.90;;;;;;5021840;28;20035;-66
2022/12/14 07:41:20;;;;;;;;;;;-6.30;99.90;;;;;;5025033;28;19943;-67
2022/12/14 07:43:49;;;;;;;;;;;-6.30;99.90;;;;;;5029079;28;19912;-67
2022/12/14 07:46:16;;;;;;;;;;;-6.30;99.90;;;;;;5009986;28;19921;-66
2022/12/14 07:48:45;;;;;;;;;;;-6.30;99.90;;;;;;5027538;28;19920;-66
2022/12/14 07:51:11;;;;;;;;;;;-6.30;99.90;;;;;;5025984;28;19913;-66
2022/12/14 07:53:37;;;;;;;;;;;-6.30;99.90;;;;;;5026932;28;20609;-67
2022/12/14 07:56:04;;;;;;;;;;;-6.20;99.90;;;;;;5029111;28;19913;-67
2022/12/14 07:58:30;;;;;;;;;;;-6.20;99.90;;;;;;5027852;28;19923;-67
2022/12/14 08:00:56;;;;;;;;;;;-6.20;99.90;;;;;;5028235;28;20324;-70
2022/12/14 08:03:21;;;;;;;;;;;-6.10;99.90;;;;;;5012013;28;19924;-67
2022/12/14 08:05:50;;;;;;;;;;;-6.00;99.90;;;;;;5028695;28;19913;-67
2022/12/14 08:08:16;;;;;;;;;;;-6.00;99.90;;;;;;5004795;28;19948;-67
2022/12/14 08:10:42;;;;;;;;;;;-5.90;99.90;;;;;;5027427;28;19999;-66
2022/12/14 08:13:07;;;;;;;;;;;-5.80;99.90;;;;;;5012164;28;20394;-67
2022/12/14 08:15:36;;;;;;;;;;;-5.80;99.90;;;;;;5021122;28;19988;-67
2022/12/14 08:18:01;;;;;;;;;;;-5.70;99.90;;;;;;5029423;28;19926;-66
2022/12/14 08:20:27;;;;;;;;;;;-5.70;99.90;;;;;;5025595;28;20337;-67
2022/12/14 08:22:52;;;;;;;;;;;-5.60;99.90;;;;;;5011067;28;19913;-67
2022/12/14 08:25:18;;;;;;;;;;;-5.60;99.90;;;;;;5028931;28;19928;-68
2022/12/14 08:27:47;;;;;;;;;;;-5.50;99.90;;;;;;5028705;28;19924;-68
2022/12/14 08:30:18;;;;;;;;;;;-5.50;99.90;;;;;;5025973;28;20444;-66
2022/12/14 08:32:46;;;;;;;;;;;-5.40;99.90;;;;;;5009453;28;19917;-66
2022/12/14 08:35:12;;;;;;;;;;;-5.30;99.90;;;;;;5002934;28;19948;-68
2022/12/14 08:37:37;;;;;;;;;;;-5.30;99.90;;;;;;5028568;28;19919;-75
2022/12/14 08:40:03;;;;;;;;;;;-5.20;99.90;;;;;;5011343;28;19983;-73
2022/12/14 08:42:29;;;;;;;;;;;-5.10;99.90;;;;;;5039630;28;19949;-66
2022/12/14 08:44:54;;;;;;;;;;;-5.10;99.90;;;;;;5027671;28;19913;-65
2022/12/14 08:47:20;;;;;;;;;;;-5.00;99.90;;;;;;5024766;28;19913;-66
2022/12/14 08:49:46;;;;;;;;;;;-4.90;99.90;;;;;;5029269;28;19928;-67
2022/12/14 08:52:11;;;;;;;;;;;-4.90;99.90;;;;;;5025552;28;19923;-66
2022/12/14 08:54:37;;;;;;;;;;;-4.80;99.90;;;;;;5022567;28;20076;-69
2022/12/14 08:57:03;;;;;;;;;;;-4.70;99.90;;;;;;5025777;28;19970;-68
2022/12/14 08:59:28;;;;;;;;;;;-4.70;99.90;;;;;;5025431;28;19920;-66
2022/12/14 09:01:54;;;;;;;;;;;-4.60;99.90;;;;;;5028620;28;19920;-66
2022/12/14 09:04:20;;;;;;;;;;;-4.60;99.90;;;;;;5021525;28;20549;-66
2022/12/14 09:06:45;;;;;;;;;;;-4.50;99.90;;;;;;5011325;28;19928;-66
2022/12/14 09:09:11;;;;;;;;;;;-4.40;99.90;;;;;;5024436;28;19939;-67
2022/12/14 09:11:36;;;;;;;;;;;-4.40;99.90;;;;;;5028784;28;20285;-66
2022/12/14 09:14:02;;;;;;;;;;;-4.30;99.90;;;;;;5022797;28;20766;-66
2022/12/14 09:16:28;;;;;;;;;;;-4.30;99.90;;;;;;5026158;28;20600;-66
2022/12/14 09:18:54;;;;;;;;;;;-4.20;99.90;;;;;;5028734;28;19913;-66
2022/12/14 09:21:20;;;;;;;;;;;-4.10;99.90;;;;;;5007760;28;19959;-67
2022/12/14 09:23:45;;;;;;;;;;;-4.10;99.90;;;;;;5029143;28;19916;-67
2022/12/14 09:26:15;;;;;;;;;;;-4.00;99.90;;;;;;5014987;28;20024;-66
2022/12/14 09:28:41;;;;;;;;;;;-3.90;99.90;;;;;;5023678;28;20371;-67
2022/12/14 09:31:09;;;;;;;;;;;-3.90;99.90;;;;;;5016622;28;19921;-67
2022/12/14 09:33:35;;;;;;;;;;;-3.80;99.90;;;;;;5007024;28;20436;-66
2022/12/14 09:36:05;;;;;;;;;;;-3.70;99.90;;;;;;5030677;28;19913;-65
2022/12/14 09:38:31;;;;;;;;;;;-3.70;99.90;;;;;;5029571;28;19932;-65
2022/12/14 09:40:57;;;;;;;;;;;-3.70;99.90;;;;;;5030059;28;20301;-67
2022/12/14 09:43:30;;;;;;;;;;;-3.60;99.90;;;;;;5017525;28;19914;-66
2022/12/14 09:45:56;;;;;;;;;;;-3.60;99.90;;;;;;5031275;28;19917;-66
2022/12/14 09:48:23;;;;;;;;;;;-3.50;99.90;;;;;;5022727;28;20589;-66
2022/12/14 09:50:48;;;;;;;;;;;-3.40;99.90;;;;;;5030235;28;19912;-67
2022/12/14 09:53:14;;;;;;;;;;;-3.40;99.90;;;;;;5031086;28;19920;-69
2022/12/14 09:55:43;;;;;;;;;;;-3.30;99.90;;;;;;5024626;28;20246;-66
2022/12/14 09:58:22;;;;;;;;;;;-3.30;99.90;;;;;;5031723;28;20290;-68
2022/12/14 10:00:48;;;;;;;;;;;-3.20;99.90;;;;;;5031448;28;19971;-67
2022/12/14 10:03:33;;;;;;;;;;;-3.20;99.90;;;;;;5029965;28;19963;-67
2022/12/14 10:06:08;;;;;;;;;;;-3.10;99.90;;;;;;5031895;28;19940;-67
2022/12/14 10:08:39;;;;;;;;;;;-3.10;99.90;;;;;;5028054;28;19913;-67
2022/12/14 10:11:14;;;;;;;;;;;-3.00;99.90;;;;;;5009556;28;19991;-67
2022/12/14 10:13:49;;;;;;;;;;;-3.00;99.90;;;;;;5013000;28;19917;-66
2022/12/14 10:16:15;;;;;;;;;;;-3.00;99.90;;;;;;5026771;28;19920;-66
2022/12/14 10:18:40;;;;;;;;;;;-2.90;99.90;;;;;;5032285;28;19913;-69
2022/12/14 10:21:06;;;;;;;;;;;-2.80;99.90;;;;;;5011266;28;19975;-69
2022/12/14 10:23:32;;;;;;;;;;;-2.70;99.90;;;;;;5029432;28;19935;-69
2022/12/14 10:25:59;;;;;;;;;;;-2.60;99.90;;;;;;5031569;28;19970;-70
2022/12/14 10:28:35;;;;;;;;;;;-2.60;99.90;;;;;;5030016;28;19955;-70
2022/12/14 10:31:01;;;;;;;;;;;-2.50;99.90;;;;;;5029463;28;19982;-70
2022/12/14 10:33:30;;;;;;;;;;;-2.50;99.90;;;;;;5013074;28;19921;-69
2022/12/14 10:35:56;;;;;;;;;;;-2.40;99.90;;;;;;5020537;28;20012;-69
2022/12/14 10:38:26;;;;;;;;;;;-2.40;99.90;;;;;;5028766;28;19996;-69
2022/12/14 10:41:18;;;;;;;;;;;-2.40;99.90;;;;;;5030898;28;19924;-69
2022/12/14 10:44:07;;;;;;;;;;;-2.30;99.90;;;;;;5030605;28;19913;-71
2022/12/14 10:46:36;;;;;;;;;;;-2.30;99.90;;;;;;5024521;28;19909;-71
2022/12/14 10:49:05;;;;;;;;;;;-2.30;99.90;;;;;;5030286;28;19971;-70
2022/12/14 10:51:30;;;;;;;;;;;-2.30;99.90;;;;;;5029635;28;20338;-70
2022/12/14 10:54:02;;;;;;;;;;;-2.20;99.90;;;;;;5031421;28;19975;-70
2022/12/14 10:56:29;;;;;;;;;;;-2.20;99.90;;;;;;5029807;28;19913;-70
2022/12/14 10:59:13;;;;;;;;;;;-2.10;99.90;;;;;;5030173;28;20342;-70
2022/12/14 11:01:39;;;;;;;;;;;-2.00;99.90;;;;;;5031698;28;19999;-69
2022/12/14 11:04:07;;;;;;;;;;;-1.50;99.90;;;;;;5027270;28;19996;-67
2022/12/14 11:06:32;;;;;;;;;;;-1.20;99.90;;;;;;5011923;28;19913;-68
2022/12/14 11:08:58;;;;;;;;;;;-0.90;99.90;;;;;;5030015;28;19923;-69
2022/12/14 11:11:24;;;;;;;;;;;-0.90;99.90;;;;;;5025101;28;19920;-69
2022/12/14 11:13:50;;;;;;;;;;;-0.60;99.90;;;;;;5030031;28;19921;-68
2022/12/14 11:16:17;;;;;;;;;;;0.10;99.90;;;;;;5007327;28;19944;-68
2022/12/14 11:18:43;;;;;;;;;;;0.80;99.90;;;;;;5013912;28;20562;-68
2022/12/14 11:21:09;;;;;;;;;;;1.50;99.90;;;;;;4995842;28;19913;-68
2022/12/14 11:23:39;;;;;;;;;;;2.20;99.90;;;;;;5012696;28;19920;-68
2022/12/14 11:26:05;;;;;;;;;;;2.60;99.90;;;;;;5028147;28;20689;-68
2022/12/14 11:28:35;;;;;;;;;;;3.00;99.90;;;;;;5013749;28;19916;-69
2022/12/14 11:31:02;;;;;;;;;;;3.40;99.90;;;;;;5023103;28;19913;-70
2022/12/14 11:33:31;;;;;;;;;;;3.80;99.90;;;;;;5027420;28;19920;-69
2022/12/14 11:35:57;;;;;;;;;;;4.20;99.90;;;;;;5029074;28;19917;-69
2022/12/14 11:38:23;;;;;;;;;;;4.40;99.90;;;;;;5029981;28;19987;-68
2022/12/14 11:40:48;;;;;;;;;;;4.40;96.00;;;;;;4995873;28;19913;-67
2022/12/14 11:43:27;;;;;;;;;;;4.50;94.30;;;;;;5027336;28;19913;-68
2022/12/14 11:45:54;;;;;;;;;;;4.50;95.60;;;;;;5012709;28;19924;-69
2022/12/14 11:48:20;;;;;;;;;;;4.50;94.60;;;;;;5009856;28;19913;-69
2022/12/14 11:50:46;;;;;;;;;;;4.40;93.60;;;;;;5030605;28;19912;-69
2022/12/14 11:53:13;;;;;;;;;;;4.60;96.80;;;;;;5030245;28;20307;-67
2022/12/14 11:55:42;;;;;;;;;;;4.60;94.60;;;;;;5012642;28;19917;-67
2022/12/14 11:58:21;;;;;;;;;;;4.70;94.40;;;;;;5011201;28;19913;-69
2022/12/14 12:00:51;;;;;;;;;;;4.70;93.60;;;;;;5023981;28;19948;-69
2022/12/14 12:03:17;;;;;;;;;;;4.70;93.60;;;;;;5022889;28;19944;-69
2022/12/14 12:05:43;;;;;;;;;;;4.70;91.20;;;;;;5026108;28;20284;-71
2022/12/14 12:08:28;;;;;;;;;;;4.70;94.70;;;;;;5028549;28;20342;-71
2022/12/14 12:10:57;;;;;;;;;;;4.70;91.40;;;;;;5028511;28;19916;-70
2022/12/14 12:13:47;;;;;;;;;;;4.70;94.70;;;;;;5028777;28;19920;-71
2022/12/14 12:16:13;;;;;;;;;;;4.70;94.90;;;;;;5028872;28;20330;-71
2022/12/14 12:18:43;;;;;;;;;;;4.90;94.70;;;;;;5012645;28;19943;-71
2022/12/14 12:21:09;;;;;;;;;;;5.00;94.00;;;;;;5025433;28;20322;-70
2022/12/14 12:23:41;;;;;;;;;;;5.00;94.40;;;;;;5025223;28;19913;-71
2022/12/14 12:26:25;;;;;;;;;;;5.10;92.70;;;;;;5023079;28;19921;-70
2022/12/14 12:29:01;;;;;;;;;;;5.10;91.80;;;;;;5028698;28;20645;-71
2022/12/14 12:31:31;;;;;;;;;;;4.90;90.60;;;;;;5008580;28;19944;-70
2022/12/14 12:33:58;;;;;;;;;;;5.20;93.10;;;;;;5026089;28;20297;-69
2022/12/14 12:36:24;;;;;;;;;;;5.20;90.00;;;;;;5028192;28;20307;-71
2022/12/14 12:39:02;;;;;;;;;;;5.20;90.50;;;;;;5008127;28;20012;-69
2022/12/14 12:41:32;;;;;;;;;;;5.20;88.50;;;;;;5027957;28;20254;-68
2022/12/14 12:43:58;;;;;;;;;;;4.90;90.60;;;;;;5008394;28;20008;-70
2022/12/14 12:46:31;;;;;;;;;;;5.00;90.80;;;;;;5027554;28;20009;-70
2022/12/14 12:48:59;;;;;;;;;;;5.10;89.60;;;;;;5028296;28;19913;-70
2022/12/14 12:51:26;;;;;;;;;;;5.00;91.10;;;;;;5001034;28;19963;-69
2022/12/14 12:53:54;;;;;;;;;;;5.00;90.70;;;;;;5023397;28;19929;-69
2022/12/14 12:56:21;;;;;;;;;;;4.90;91.00;;;;;;5028072;28;20382;-70
2022/12/14 12:58:47;;;;;;;;;;;4.80;90.80;;;;;;5029155;28;19923;-71
2022/12/14 13:01:27;;;;;;;;;;;4.80;91.40;;;;;;5009352;28;19917;-72
2022/12/14 13:03:54;;;;;;;;;;;4.80;90.90;;;;;;5028505;28;20073;-71
2022/12/14 13:06:21;;;;;;;;;;;4.70;91.00;;;;;;5005058;28;19978;-71
2022/12/14 13:08:47;;;;;;;;;;;4.50;91.70;;;;;;5011406;28;19920;-71
2022/12/14 13:11:18;;;;;;;;;;;4.50;92.30;;;;;;5026850;28;19947;-71
2022/12/14 13:13:45;;;;;;;;;;;4.50;92.50;;;;;;5008547;28;19928;-71
2022/12/14 13:16:41;;;;;;;;;;;4.30;91.50;;;;;;5005528;28;19913;-71
2022/12/14 13:19:15;;;;;;;;;;;4.20;91.80;;;;;;5011011;28;19924;-71
2022/12/14 13:21:43;;;;;;;;;;;4.00;91.60;;;;;;5008256;28;19914;-72
2022/12/14 13:24:14;;;;;;;;;;;3.80;92.60;;;;;;5027665;28;19913;-71
2022/12/14 13:26:55;;;;;;;;;;;3.80;92.80;;;;;;5021101;28;19924;-71
2022/12/14 13:29:27;;;;;;;;;;;3.80;92.70;;;;;;5022399;28;19913;-70
2022/12/14 13:32:01;;;;;;;;;;;3.60;92.70;;;;;;5024747;28;19913;-70
2022/12/14 13:34:50;;;;;;;;;;;3.50;93.00;;;;;;5028573;28;19963;-70
2022/12/14 13:37:16;;;;;;;;;;;3.50;93.30;;;;;;5026090;28;19917;-70
2022/12/14 13:39:55;;;;;;;;;;;3.50;93.00;;;;;;5007183;28;19933;-71
2022/12/14 13:42:21;;;;;;;;;;;3.50;93.10;;;;;;5026145;28;20668;-69
2022/12/14 13:44:46;;;;;;;;;;;3.50;92.70;;;;;;5027344;28;19924;-70
2022/12/14 13:47:13;;;;;;;;;;;3.60;93.00;;;;;;5029313;28;20212;-70
2022/12/14 13:49:39;;;;;;;;;;;3.60;93.10;;;;;;5012086;28;20011;-71
2022/12/14 13:52:04;;;;;;;;;;;3.60;92.90;;;;;;5008580;28;20877;-71
2022/12/14 13:54:34;;;;;;;;;;;3.70;92.90;;;;;;5025290;28;19924;-71
2022/12/14 13:57:07;;;;;;;;;;;3.50;92.90;;;;;;5027882;28;19912;-71
2022/12/14 13:59:40;;;;;;;;;;;3.50;93.10;;;;;;5005654;28;20255;-71
2022/12/14 14:02:07;;;;;;;;;;;3.30;93.10;;;;;;5028400;28;20353;-70
2022/12/14 14:04:34;;;;;;;;;;;3.10;93.60;;;;;;5027985;28;19913;-70
2022/12/14 14:07:18;;;;;;;;;;;3.10;94.30;;;;;;5030374;28;19977;-71
2022/12/14 14:09:47;;;;;;;;;;;3.10;94.70;;;;;;5031135;28;19920;-71
2022/12/14 14:12:16;;;;;;;;;;;3.10;94.80;;;;;;5030050;28;20027;-70
2022/12/14 14:14:42;;;;;;;;;;;2.90;94.70;;;;;;5013687;28;19959;-70
2022/12/14 14:17:10;;;;;;;;;;;2.90;94.90;;;;;;5030076;28;19953;-70
2022/12/14 14:19:38;;;;;;;;;;;2.70;95.10;;;;;;5029016;28;19917;-68
2022/12/14 14:22:06;;;;;;;;;;;2.30;95.50;;;;;;5031280;28;20327;-68
2022/12/14 14:24:49;;;;;;;;;;;2.10;96.00;;;;;;5031724;28;19913;-69
2022/12/14 14:27:18;;;;;;;;;;;2.00;96.20;;;;;;5025385;28;19920;-68
2022/12/14 14:29:47;;;;;;;;;;;1.90;96.50;;;;;;5030608;28;19913;-68
2022/12/14 14:32:32;;;;;;;;;;;1.80;96.90;;;;;;5031357;28;20002;-69
2022/12/14 14:34:58;;;;;;;;;;;1.70;97.10;;;;;;5027913;28;19944;-67
2022/12/14 14:37:25;;;;;;;;;;;1.70;97.20;;;;;;5013322;28;19912;-68
2022/12/14 14:39:56;;;;;;;;;;;1.60;97.30;;;;;;5026001;28;19993;-66
2022/12/14 14:42:23;;;;;;;;;;;1.20;97.60;;;;;;5030635;28;20251;-68
2022/12/14 14:44:52;;;;;;;;;;;1.10;97.80;;;;;;5030269;28;20231;-68